Fenelon Falls, Canada
Current Conditions -  °F | °C
As of 5:46 AM on Sunday 26 Oct 2014 (Local Time) from CYPQ Reporting Station
Scattered Clouds Scattered Clouds  
Wind Chill: 40°   Ceiling: Unl
Heat Index: 45°   Visibility: 9mi
Dew Point: 41°   Wind: 9mph
Humidity: 87%   Direction: 300°WNW
Pressure: 29.58"   Gusts: 18mph
Location:  44.53°N, 78.75°W
Report Text: CYPQ 260946Z AUTO 30008G16KT 9SM FEW023 SCT028 SCT037 07/05 A2958 RMK PRESRR SLP021
Loading
Personal Weather Stations






























Interactive Weather Map
Tropical Storm Tracking
New forecast layout! Learn more

10-Day Weather Forecast

Advertisements
Track Severe Weather on mobile